ADDS METAR Data INFO
IDs: Format: Raw Decoded Include TAF

Data at: 0741 UTC 21 Jul 2018

PAGM 210656Z AUTO 10009G16KT 10SM OVC022 11/09 A3012 RMK AO2 SLP205 T01060089
PAGM 210629Z AUTO 08008KT 10SM SCT016 OVC022 11/09 A3012 RMK AO2
PAGM 210615Z AUTO 07008KT 10SM BKN014 OVC022 11/09 A3012 RMK AO2
PAGM 210556Z AUTO 12010KT 10SM BKN016 OVC022 12/10 A3013 RMK AO2 SLP208 T01170100 10117 20089 56004
PAGM 210456Z AUTO 12013KT 10SM OVC040 12/09 A3013 RMK AO2 SLP210 T01170094
PAGM 210356Z AUTO 11011G21KT 10SM FEW030 OVC040 12/08 A3013 RMK AO2 SLP211 T01170083
PAGM 210256Z AUTO 10014G19KT 10SM OVC044 11/09 A3014 RMK AO2 SLP212 T01110089 57009
PAGM 210156Z AUTO 09015KT 10SM OVC042 11/08 A3015 RMK AO2 SLP215 T01060083
PAGM 210137Z AUTO 09018KT 10SM SCT022 OVC040 10/08 A3015 RMK AO2
PAGM 210056Z AUTO 09016KT 9SM OVC020 09/08 A3016 RMK AO2 SLP219 T00940083
PAGM 202356Z AUTO 08014KT 9SM OVC020 09/08 A3017 RMK AO2 SLP222 T00940078 10100 20078 58006
PAGM 202339Z AUTO 08015KT 6SM BR OVC016 09/08 A3017 RMK AO2
PAGM 202304Z AUTO 08011KT 10SM OVC014 09/08 A3017 RMK AO2
PAGM 202256Z AUTO 08011KT 10SM OVC016 09/07 A3018 RMK AO2 SLP225 T00940072
PAGM 202156Z AUTO 11007KT 10SM SCT011 OVC018 10/07 A3018 RMK AO2 SLP227 T01000072
PAGM 202114Z AUTO 00000KT 9SM OVC013 09/07 A3019 RMK AO2
PAGM 202056Z AUTO 19004KT 10SM OVC018 09/07 A3019 RMK AO2 SLP228 T00890067 51003
PAGM 201956Z AUTO 21008KT 10SM OVC021 09/07 A3018 RMK AO2 SLP228 T00890067
PAGM 201942Z AUTO 20007KT 10SM SCT014 OVC023 09/07 A3018 RMK AO2
PAGM 201856Z AUTO 23006KT 10SM OVC010 08/07 A3018 RMK AO2 SLP226 T00830072
PAGM 201829Z AUTO 21005KT 10SM OVC010 08/07 A3018 RMK AO2
PAGM 201756Z AUTO 20007KT 10SM OVC008 08/08 A3018 RMK AO2 CIG 006V010 SLP225 T00830078 10089 20078 50002
PAGM 201728Z AUTO 20007KT 7SM SCT006 OVC011 08/07 A3018 RMK AO2
PAGM 201656Z AUTO 19010KT 10SM OVC006 08/07 A3018 RMK AO2 SLP226 T00830072
PAGM 201556Z AUTO 17009KT 10SM OVC008 09/08 A3017 RMK AO2 SLP223 T00890078
PAGM 201532Z AUTO 16008KT 10SM BKN008 OVC012 09/08 A3017 RMK AO2 CIG 006V010
PAGM 201456Z AUTO 15012KT 10SM BKN012 OVC023 09/08 A3017 RMK AO2 SLP223 T00890078 56003
PAGM 201356Z AUTO 16012KT 10SM OVC019 08/08 A3017 RMK AO2 SLP223 T00830078
PAGM 201256Z AUTO 16010KT 10SM SCT019 OVC029 09/08 A3017 RMK AO2 SLP224 T00890083
PAGM 201156Z AUTO 16009KT 10SM FEW011 OVC025 09/08 A3018 RMK AO2 SLP226 T00890078 10094 20083 58003
PAGM 201056Z AUTO 17010KT 10SM FEW004 OVC021 08/08 A3019 RMK AO2 SLP229 T00830078
PAGM 200956Z AUTO 15009KT 10SM FEW007 OVC015 09/08 A3019 RMK AO2 SLP228 T00890078
PAGM 200946Z AUTO 15011KT 10SM OVC015 09/08 A3019 RMK AO2
PAGM 200929Z AUTO 15010KT 10SM FEW007 OVC013 09/08 A3019 RMK AO2
PAGM 200918Z AUTO 15012KT 10SM OVC011 09/08 A3019 RMK AO2
PAGM 200756Z AUTO 28003KT 5SM BR OVC009 08/07 A3018 RMK AO2 SLP227 T00830072
PAGM 200715Z AUTO 00000KT 10SM OVC009 09/08 A3018 RMK AO2
PAGM 200656Z AUTO 20005KT 10SM OVC011 09/08 A3017 RMK AO2 SLP224 T00890078
PAGM 200556Z AUTO 21006KT 10SM OVC009 09/08 A3017 RMK AO2 SLP224 T00890078 10100 20078 57003
PAGM 200543Z AUTO 21006KT 10SM OVC009 09/08 A3017 RMK AO2
PAGM 200456Z AUTO 00000KT 10SM OVC011 09/07 A3018 RMK AO2 SLP225 T00890072
PAGM 200356Z AUTO 00000KT 8SM OVC013 08/07 A3018 RMK AO2 SLP225 T00830067
PAGM 200337Z AUTO 20003KT 9SM OVC013 09/07 A3018 RMK AO2
PAGM 200256Z AUTO 22003KT 10SM FEW006 OVC015 08/07 A3018 RMK AO2 SLP227 T00830067 56001
PAGM 200156Z AUTO 23003KT 9SM SCT008 OVC015 08/07 A3018 RMK AO2 SLP227 T00830067
PAGM 200132Z AUTO 00000KT 6SM BR FEW007 OVC015 08/07 A3018 RMK AO2
PAGM 200125Z AUTO 00000KT 10SM BKN007 OVC015 08/06 A3018 RMK AO2 CIG 006V010
PAGM 200117Z AUTO 23003KT 10SM SCT007 OVC015 08/07 A3018 RMK AO2
PAGM 200108Z AUTO VRB03KT 10SM BKN007 OVC015 08/06 A3018 RMK AO2
PAGM 200056Z AUTO 00000KT 9SM SCT007 OVC015 08/06 A3018 RMK AO2 SLP226 T00780061
PAGM 200032Z AUTO 00000KT 10SM FEW007 OVC015 08/06 A3018 RMK AO2
PAGM 200008Z AUTO VRB03KT 10SM FEW007 OVC013 08/07 A3018 RMK AO2
PAGM 192356Z AUTO 20003KT 10SM OVC011 08/06 A3018 RMK AO2 SLP228 T00780061 10078 20072 52009
PAGM 192256Z AUTO 22005KT 5SM BR OVC009 07/07 A3017 RMK AO2 SLP225 T00720072
PAGM 192244Z AUTO 22005KT 5SM BR SCT003 OVC009 07/07 A3018 RMK AO2
PAGM 192227Z AUTO 21005KT 4SM BR BKN003 OVC009 08/07 A3018 RMK AO2
PAGM 192156Z AUTO 21005KT 10SM OVC009 08/07 A3017 RMK AO2 SLP222 T00780067
PAGM 192107Z AUTO 21006KT 10SM BKN009 OVC013 07/07 A3016 RMK AO2
PAGM 192056Z AUTO 21006KT 10SM OVC013 07/07 A3016 RMK AO2 SLP219 T00720067 51009
PAGM 191956Z AUTO 21007KT 4SM BR OVC011 07/07 A3015 RMK AO2 SLP218 T00720072
PAGM 191946Z AUTO 20008KT 5SM BR SCT003 OVC009 07/07 A3015 RMK AO2 CIG 007V012